M I D A S
Marine Information and Data Acquisition System
Tripno 705 of the Zeeleeuw from 2004-05-03 06:37:17 to 2004-05-03 13:20:30
Back to CruiseResearch ActivitiesStationsMapUnderway DataData graphs

EquipmentUnitsComments
TimeDGPSUTC
LatitudeDGPSDM.mWGS84
LongitudeDGPSDM.mWGS84
SpeedMeteo Stationm/sRelative wind speed
DirectionMeteo StationdegRelative wind direction
TemperatureMeteo Stationdeg CelciusAir temperature
PressureMeteo StationPaAtmospheric pressure
HumidityMeteo Station%Relative humidity
Missing or incorrect values are displayed as -999
Metereological data collected by the RV Zeeleeuw from 2004-05-03 06:37:17 to 2004-05-03 13:20:30
Time Latitude Longitude Speed Direction Temperature Pressure Humidity
2004-05-03 06:38 51°13.599 2°56.088 3.4 143 10.5 100360 69
2004-05-03 06:39 51°13.627 2°55.999 4.6 175 10.5 100360 68
2004-05-03 06:40 51°13.663 2°55.874 5.1 167 10.6 100370 69
2004-05-03 06:41 51°13.675 2°55.754 3.9 179 10.5 100360 69
2004-05-03 06:42 51°13.702 2°55.752 1.8 329 10.5 100360 69
2004-05-03 06:43 51°13.782 2°55.682 3.3 345 10.6 100360 69
2004-05-03 06:44 51°13.881 2°55.596 4.2 316 10.7 100360 68
2004-05-03 06:45 51°13.997 2°55.515 3.6 227 10.7 100360 68
2004-05-03 06:46 51°14.132 2°55.419 4.2 339 10.8 100360 67
2004-05-03 06:47 51°14.264 2°55.264 7 332 10.9 100360 66
2004-05-03 06:48 51°14.39 2°55.026 9.9 332 10.9 100350 68
2004-05-03 06:49 51°14.455 2°54.686 11.9 346 10.9 100330 70
2004-05-03 06:50 51°14.367 2°54.336 13.1 357 10.8 100320 70
2004-05-03 06:51 51°14.254 2°53.997 12.3 354 10.7 100340 72
2004-05-03 06:52 51°14.134 2°53.662 12.7 356 10.6 100340 72
2004-05-03 06:53 51°14.021 2°53.316 12.1 355 10.5 100330 74
2004-05-03 06:54 51°13.902 2°52.971 11.8 354 10.5 100330 74
2004-05-03 06:55 51°13.782 2°52.623 12 352 10.5 100330 75
2004-05-03 06:56 51°13.663 2°52.274 11.7 350 10.6 100320 75
2004-05-03 06:57 51°13.544 2°51.923 12.7 354 10.6 100330 76
2004-05-03 06:58 51°13.424 2°51.572 12.5 356 10.8 100330 73
2004-05-03 06:59 51°13.307 2°51.22 14.4 357 10.9 100330 73
2004-05-03 07:00 51°13.19 2°50.872 13.4 359 11 100340 73
2004-05-03 07:01 51°13.076 2°50.534 13.8 357 11 100330 73
2004-05-03 07:02 51°12.956 2°50.169 13.3 358 11 100330 74
2004-05-03 07:03 51°12.839 2°49.816 13.1 358 11 100340 75
2004-05-03 07:04 51°12.723 2°49.461 12.5 2 11 100340 75
2004-05-03 07:05 51°12.606 2°49.107 13.8 2 11 100340 73
2004-05-03 07:06 51°12.489 2°48.751 12.8 4 11.1 100330 72
2004-05-03 07:07 51°12.368 2°48.399 13.3 6 11.2 100330 72
2004-05-03 07:08 51°12.241 2°48.054 13.5 8 11.2 100330 73
2004-05-03 07:09 51°12.115 2°47.709 13.2 5 11.3 100340 73
2004-05-03 07:10 51°11.989 2°47.365 13.8 10 11.4 100350 74
2004-05-03 07:11 51°11.864 2°47.02 13.8 8 11.5 100350 72
2004-05-03 07:12 51°11.738 2°46.676 15.4 7 11.5 100330 71
2004-05-03 07:13 51°11.613 2°46.335 14.2 6 11.5 100330 71
2004-05-03 07:14 51°11.488 2°45.994 13.5 6 11.6 100330 71
2004-05-03 07:15 51°11.364 2°45.652 14 7 11.6 100330 71
2004-05-03 07:16 51°11.241 2°45.31 13.7 6 11.6 100330 72
2004-05-03 07:17 51°11.135 2°44.947 13.4 10 11.6 100340 74
2004-05-03 07:18 51°11.032 2°44.595 14.4 5 11.6 100340 74
2004-05-03 07:19 51°10.928 2°44.238 13.9 8 11.6 100340 72
2004-05-03 07:20 51°10.824 2°43.881 13.1 3 11.6 100330 73
2004-05-03 07:21 51°10.719 2°43.521 13 3 11.6 100340 73
2004-05-03 07:22 51°10.613 2°43.169 13.3 2 11.6 100330 74
2004-05-03 07:23 51°10.513 2°42.821 13.7 4 11.7 100320 75
2004-05-03 07:24 51°10.41 2°42.468 12.7 2 11.6 100330 74
2004-05-03 07:25 51°10.305 2°42.118 13.2 1 11.7 100320 74
2004-05-03 07:26 51°10.197 2°41.772 12.9 359 11.7 100330 75
2004-05-03 07:27 51°10.1 2°41.42 12.2 4 11.8 100330 75
2004-05-03 07:28 51°10.001 2°41.069 12.7 2 11.8 100320 75
2004-05-03 07:29 51°9.902 2°40.719 12.4 359 11.8 100330 74
2004-05-03 07:30 51°9.824 2°40.355 12.7 358 11.9 100330 75
2004-05-03 07:31 51°9.745 2°39.99 13.1 2 11.9 100320 74
2004-05-03 07:32 51°9.667 2°39.627 13.4 2 12 100320 74
2004-05-03 07:33 51°9.59 2°39.263 13.1 3 12 100320 74
2004-05-03 07:34 51°9.51 2°38.899 12.5 3 12.1 100320 74
2004-05-03 07:35 51°9.43 2°38.536 13 359 12 100320 73
2004-05-03 07:36 51°9.351 2°38.171 12.7 2 12.1 100310 74
2004-05-03 07:37 51°9.273 2°37.81 13.5 1 12.1 100310 76
2004-05-03 07:38 51°9.197 2°37.449 12.6 1 12.1 100310 76
2004-05-03 07:39 51°9.093 2°37.239 8.8 28 12 100330 76
2004-05-03 07:40 51°9.039 2°37.174 5.4 355 12 100340 77
2004-05-03 07:41 51°9.033 2°37.171 5.5 327 12 100340 77
2004-05-03 07:42 51°9.072 2°37.121 3.3 258 12 100340 76
2004-05-03 07:43 51°9.108 2°37.219 4 136 12.1 100340 78
2004-05-03 07:44 51°9.101 2°37.254 6.3 131 12.1 100340 77
2004-05-03 07:45 51°9.095 2°37.252 5.7 127 12.1 100330 76
2004-05-03 07:46 51°9.088 2°37.253 5.5 114 12 100330 75
2004-05-03 07:47 51°9.08 2°37.254 5.3 103 12 100330 75
2004-05-03 07:48 51°9.071 2°37.254 5.5 97 12 100330 76
2004-05-03 07:49 51°9.063 2°37.254 5.8 102 12.1 100330 78
2004-05-03 07:50 51°9.053 2°37.254 4.9 94 12 100330 78
2004-05-03 07:51 51°9.043 2°37.254 5.3 93 12 100330 78
2004-05-03 07:52 51°9.034 2°37.255 5 89 12 100330 78
2004-05-03 07:53 51°9.023 2°37.256 5.3 84 12 100330 78
2004-05-03 07:54 51°9.013 2°37.255 5.3 81 12 100330 78
2004-05-03 07:55 51°9.003 2°37.255 4.3 85 12 100330 78
2004-05-03 07:56 51°8.992 2°37.253 5.2 78 12 100330 78
2004-05-03 07:57 51°8.981 2°37.254 4.5 80 12 100330 77
2004-05-03 07:58 51°8.97 2°37.253 4.7 79 12.1 100330 78
2004-05-03 07:59 51°8.947 2°37.248 5.6 47 12 100330 78
2004-05-03 08:00 51°8.919 2°37.218 6.4 10 12.1 100320 79
2004-05-03 08:01 51°8.907 2°37.153 6.2 328 12.1 100320 78
2004-05-03 08:02 51°8.939 2°37.098 5.3 280 12.2 100320 77
2004-05-03 08:03 51°8.983 2°37.118 4.2 230 12.2 100330 77
2004-05-03 08:04 51°9.023 2°37.181 3.1 227 12.3 100330 77
2004-05-03 08:05 51°9.058 2°37.261 3.2 215 12.3 100330 77
2004-05-03 08:06 51°9.085 2°37.338 3.6 204 12.3 100330 76
2004-05-03 08:07 51°9.109 2°37.406 4 223 12.3 100330 76
2004-05-03 08:08 51°9.135 2°37.466 4.2 221 12.3 100330 77
2004-05-03 08:09 51°9.163 2°37.524 4.1 223 12.3 100330 77
2004-05-03 08:10 51°9.19 2°37.581 4.3 222 12.3 100330 76
2004-05-03 08:11 51°9.217 2°37.638 3.7 220 12.4 100330 78
2004-05-03 08:12 51°9.241 2°37.701 2.3 192 12.4 100330 77
2004-05-03 08:13 51°9.252 2°37.772 3.5 163 12.6 100330 76
2004-05-03 08:14 51°9.249 2°37.847 4 147 12.6 100330 76
2004-05-03 08:15 51°9.24 2°37.923 4.2 144 12.5 100320 77
2004-05-03 08:16 51°9.235 2°37.998 4.2 153 12.5 100320 77
2004-05-03 08:17 51°9.241 2°38.073 3.7 162 12.5 100320 76
2004-05-03 08:18 51°9.248 2°38.149 3.4 156 12.5 100320 76
2004-05-03 08:19 51°9.251 2°38.226 4 155 12.5 100320 77
2004-05-03 08:20 51°9.249 2°38.302 4.6 144 12.5 100320 77
2004-05-03 08:21 51°9.24 2°38.378 4 139 12.5 100320 77
2004-05-03 08:22 51°9.225 2°38.451 4.5 130 12.6 100320 77
2004-05-03 08:23 51°9.208 2°38.51 4.8 122 12.7 100320 77
2004-05-03 08:24 51°9.188 2°38.554 5.1 117 12.7 100310 76
2004-05-03 08:25 51°9.169 2°38.589 4.8 112 12.7 100310 75
2004-05-03 08:26 51°9.152 2°38.619 5.9 110 12.7 100310 76
2004-05-03 08:27 51°9.136 2°38.645 6 104 12.7 100310 75
2004-05-03 08:28 51°9.12 2°38.703 3.1 164 12.7 100310 76
2004-05-03 08:29 51°9.174 2°38.766 5.2 284 12.8 100310 76
2004-05-03 08:30 51°9.242 2°38.635 9.3 335 12.9 100300 76
2004-05-03 08:31 51°9.288 2°38.346 12.7 347 12.9 100270 74
2004-05-03 08:32 51°9.275 2°37.995 12.6 354 13 100270 75
2004-05-03 08:33 51°9.246 2°37.639 12.8 355 13 100280 75
2004-05-03 08:34 51°9.214 2°37.284 13.5 359 13 100270 74
2004-05-03 08:35 51°9.177 2°36.93 13 2 12.9 100270 74
2004-05-03 08:36 51°9.124 2°36.578 13.2 1 12.8 100270 75
2004-05-03 08:37 51°9.063 2°36.23 12.5 7 12.8 100270 77
2004-05-03 08:38 51°8.983 2°35.889 12.7 4 12.7 100270 77
2004-05-03 08:39 51°8.905 2°35.548 12.4 7 12.7 100270 78
2004-05-03 08:40 51°8.829 2°35.211 12.2 6 12.7 100280 76
2004-05-03 08:41 51°8.761 2°34.908 12.1 2 12.7 100270 77
2004-05-03 08:42 51°8.699 2°34.622 12.3 2 12.7 100260 77
2004-05-03 08:43 51°8.632 2°34.317 11.5 4 12.7 100280 76
2004-05-03 08:44 51°8.566 2°34.025 12.3 2 12.8 100280 76
2004-05-03 08:45 51°8.5 2°33.734 13.3 5 12.8 100280 75
2004-05-03 08:46 51°8.413 2°33.464 11.7 22 12.9 100280 76
2004-05-03 08:47 51°8.289 2°33.289 11 24 12.9 100280 75
2004-05-03 08:48 51°8.21 2°33.198 7.5 38 12.9 100280 75
2004-05-03 08:49 51°8.158 2°33.161 6.8 24 12.8 100280 76
2004-05-03 08:50 51°8.135 2°33.125 7.1 1 12.8 100280 77
2004-05-03 08:51 51°8.129 2°33.093 5.7 349 12.9 100270 76
2004-05-03 08:52 51°8.131 2°33.066 6.3 341 12.9 100270 76
2004-05-03 08:53 51°8.134 2°33.041 6.6 344 12.9 100270 75
2004-05-03 08:54 51°8.134 2°33.02 5.7 351 13 100270 76
2004-05-03 08:55 51°8.134 2°33.01 5.4 353 13 100260 75
2004-05-03 08:56 51°8.135 2°33.006 5.1 350 13 100260 75
2004-05-03 08:57 51°8.136 2°33.009 4.9 355 13 100260 76
2004-05-03 08:58 51°8.137 2°33.018 5.4 1 13 100260 75
2004-05-03 08:59 51°8.138 2°33.031 4.7 9 13.1 100260 75
2004-05-03 09:00 51°8.14 2°33.047 4.8 17 13 100260 76
2004-05-03 09:01 51°8.142 2°33.068 5 25 13 100260 76
2004-05-03 09:02 51°8.143 2°33.091 5.4 35 12.9 100260 76
2004-05-03 09:03 51°8.146 2°33.118 5 50 12.9 100260 77
2004-05-03 09:04 51°8.113 2°33.124 6.4 21 12.8 100260 77
2004-05-03 09:05 51°8.064 2°33.07 6.5 10 12.8 100260 77
2004-05-03 09:06 51°8.026 2°33.017 6.2 14 12.8 100250 78
2004-05-03 09:07 51°7.994 2°32.971 6.4 22 12.9 100260 78
2004-05-03 09:08 51°7.967 2°32.928 3.3 20 12.9 100260 78
2004-05-03 09:09 51°7.944 2°32.886 6.2 21 13 100260 78
2004-05-03 09:10 51°7.922 2°32.837 6.1 18 13 100260 78
2004-05-03 09:11 51°7.898 2°32.772 7.3 16 13 100260 78
2004-05-03 09:12 51°7.878 2°32.697 7.9 12 13 100260 78
2004-05-03 09:13 51°7.855 2°32.627 7.3 28 13 100250 78
2004-05-03 09:14 51°7.824 2°32.565 6.9 26 12.9 100250 78
2004-05-03 09:15 51°7.8 2°32.495 7.7 24 12.9 100250 78
2004-05-03 09:16 51°7.779 2°32.423 7.1 20 13 100250 78
2004-05-03 09:17 51°7.756 2°32.351 6.7 20 13 100250 79
2004-05-03 09:18 51°7.735 2°32.284 6.5 24 13 100250 79
2004-05-03 09:19 51°7.715 2°32.22 7 19 13 100250 79
2004-05-03 09:20 51°7.699 2°32.155 6 17 13 100250 79
2004-05-03 09:21 51°7.687 2°32.086 6.5 15 13 100250 79
2004-05-03 09:22 51°7.682 2°32.015 6.8 9 13 100250 79
2004-05-03 09:23 51°7.685 2°31.941 6.4 3 12.9 100250 79
2004-05-03 09:24 51°7.695 2°31.867 7 5 12.9 100250 79
2004-05-03 09:25 51°7.693 2°31.796 6.4 13 12.9 100250 79
2004-05-03 09:26 51°7.684 2°31.727 6.7 9 12.9 100250 80
2004-05-03 09:27 51°7.689 2°31.654 7.3 351 12.9 100250 80
2004-05-03 09:28 51°7.72 2°31.591 6.3 331 12.9 100240 80
2004-05-03 09:29 51°7.774 2°31.552 5.8 319 13 100240 79
2004-05-03 09:30 51°7.84 2°31.536 5.4 310 13.1 100240 79
2004-05-03 09:31 51°7.906 2°31.545 5.3 288 13.1 100240 79
2004-05-03 09:32 51°7.965 2°31.578 5 274 13.1 100240 79
2004-05-03 09:33 51°8.017 2°31.623 4.6 260 13.2 100240 78
2004-05-03 09:34 51°8.065 2°31.669 3.9 263 13.1 100230 78
2004-05-03 09:35 51°8.108 2°31.712 4.2 273 13.2 100230 78
2004-05-03 09:36 51°8.147 2°31.75 4.9 274 13.2 100230 78
2004-05-03 09:37 51°8.181 2°31.783 4.8 282 13.2 100230 78
2004-05-03 09:38 51°8.212 2°31.815 4.7 283 13.2 100230 78
2004-05-03 09:39 51°8.241 2°31.848 4.6 282 13.3 100230 78
2004-05-03 09:40 51°8.267 2°31.879 4.9 281 13.3 100230 78
2004-05-03 09:41 51°8.293 2°31.911 4.5 283 13.3 100230 78
2004-05-03 09:42 51°8.318 2°31.944 4.5 283 13.3 100230 78
2004-05-03 09:43 51°8.343 2°31.978 4.6 288 13.3 100230 78
2004-05-03 09:44 51°8.366 2°32.013 4.4 276 13.4 100230 78
2004-05-03 09:45 51°8.391 2°32.048 5.4 279 13.4 100230 78
2004-05-03 09:46 51°8.414 2°32.082 5.1 279 13.4 100230 77
2004-05-03 09:47 51°8.438 2°32.118 5.5 278 13.4 100230 77
2004-05-03 09:48 51°8.461 2°32.154 4.9 281 13.5 100230 77
2004-05-03 09:49 51°8.484 2°32.191 5 274 13.4 100230 77
2004-05-03 09:50 51°8.508 2°32.228 5.2 278 13.4 100230 77
2004-05-03 09:51 51°8.531 2°32.265 5.2 279 13.4 100230 77
2004-05-03 09:52 51°8.554 2°32.302 5 277 13.4 100230 77
2004-05-03 09:53 51°8.578 2°32.34 5.3 276 13.5 100230 77
2004-05-03 09:54 51°8.6 2°32.378 5.8 267 13.5 100230 76
2004-05-03 09:55 51°8.624 2°32.417 5.6 272 13.5 100230 75
2004-05-03 09:56 51°8.649 2°32.456 5.3 269 13.6 100230 75
2004-05-03 09:57 51°8.675 2°32.495 5.5 268 13.5 100230 76
2004-05-03 09:58 51°8.7 2°32.534 4.6 273 13.5 100230 76
2004-05-03 09:59 51°8.727 2°32.573 3.5 277 13.5 100230 77
2004-05-03 10:00 51°8.754 2°32.613 3 283 13.5 100230 78
2004-05-03 10:01 51°8.78 2°32.651 3.9 275 13.4 100230 79
2004-05-03 10:02 51°8.808 2°32.691 5 273 13.4 100230 78
2004-05-03 10:03 51°8.834 2°32.729 4.8 273 13.4 100220 78
2004-05-03 10:04 51°8.862 2°32.77 4.8 280 13.4 100230 78
2004-05-03 10:05 51°8.89 2°32.811 4.3 285 13.4 100220 79
2004-05-03 10:06 51°8.917 2°32.852 4.4 289 13.4 100230 79
2004-05-03 10:07 51°8.944 2°32.892 5.1 285 13.3 100230 79
2004-05-03 10:08 51°8.97 2°32.935 4.7 277 13.3 100220 80
2004-05-03 10:09 51°8.998 2°32.979 5.4 271 13.2 100220 80
2004-05-03 10:10 51°9.025 2°33.023 5 279 13.2 100220 80
2004-05-03 10:11 51°9.052 2°33.066 6 279 13.2 100220 80
2004-05-03 10:12 51°9.079 2°33.109 6.6 272 13.2 100220 80
2004-05-03 10:13 51°9.106 2°33.154 7.1 270 13.1 100220 80
2004-05-03 10:14 51°9.132 2°33.198 6.3 281 13.1 100220 80
2004-05-03 10:15 51°9.158 2°33.242 5.2 278 13.1 100220 80
2004-05-03 10:16 51°9.184 2°33.285 6 280 13.1 100220 80
2004-05-03 10:17 51°9.21 2°33.328 5.7 279 13.1 100220 80
2004-05-03 10:18 51°9.236 2°33.371 6.4 283 13.1 100220 80
2004-05-03 10:19 51°9.261 2°33.414 5.7 279 13.2 100220 80
2004-05-03 10:20 51°9.286 2°33.456 5.1 291 13.2 100220 80
2004-05-03 10:21 51°9.31 2°33.497 5.6 288 13.2 100220 80
2004-05-03 10:22 51°9.336 2°33.538 5.2 293 13.2 100220 80
2004-05-03 10:23 51°9.359 2°33.576 6.1 300 13.2 100230 80
2004-05-03 10:24 51°9.381 2°33.611 5.6 307 13.2 100220 80
2004-05-03 10:25 51°9.401 2°33.645 5.7 227 13.2 100220 80
2004-05-03 10:26 51°9.419 2°33.678 5.6 314 13.3 100220 80
2004-05-03 10:27 51°9.436 2°33.712 6.2 314 13.3 100210 79
2004-05-03 10:28 51°9.453 2°33.748 5.5 309 13.4 100210 79
2004-05-03 10:29 51°9.471 2°33.785 5.9 310 13.4 100220 79
2004-05-03 10:30 51°9.487 2°33.822 5.9 305 13.4 100220 79
2004-05-03 10:31 51°9.504 2°33.86 6.4 302 13.4 100210 79
2004-05-03 10:32 51°9.521 2°33.898 5.5 293 13.4 100210 79
2004-05-03 10:33 51°9.539 2°33.939 5.9 295 13.4 100210 79
2004-05-03 10:34 51°9.557 2°33.98 6.2 291 13.4 100210 79
2004-05-03 10:35 51°9.575 2°34.02 5.7 287 13.3 100210 79
2004-05-03 10:36 51°9.593 2°34.06 6.4 286 13.3 100220 80
2004-05-03 10:37 51°9.611 2°34.1 6.3 285 13.3 100210 80
2004-05-03 10:38 51°9.629 2°34.139 5.7 289 13.3 100210 80
2004-05-03 10:39 51°9.647 2°34.177 5.3 291 13.2 100210 80
2004-05-03 10:40 51°9.666 2°34.217 5.8 288 13.2 100210 80
2004-05-03 10:41 51°9.683 2°34.256 7.1 284 13.2 100200 80
2004-05-03 10:42 51°9.701 2°34.296 7.5 287 13.2 100200 80
2004-05-03 10:43 51°9.718 2°34.337 7.9 284 13.2 100200 79
2004-05-03 10:44 51°9.735 2°34.379 8.4 282 13.2 100200 79
2004-05-03 10:45 51°9.752 2°34.422 8.1 285 13.1 100200 79
2004-05-03 10:46 51°9.769 2°34.467 9.2 276 12.8 100200 80
2004-05-03 10:47 51°9.786 2°34.511 8 277 12.5 100200 81
2004-05-03 10:48 51°9.81 2°34.554 8.7 271 12.3 100200 82
2004-05-03 10:49 51°9.843 2°34.603 4.5 254 12.1 100200 83
2004-05-03 10:50 51°9.876 2°34.67 4.7 228 12 100210 84
2004-05-03 10:51 51°9.898 2°34.754 2.8 178 11.9 100210 84
2004-05-03 10:52 51°9.9 2°34.839 5.9 141 11.9 100210 85
2004-05-03 10:53 51°9.889 2°34.909 7 114 11.8 100210 86
2004-05-03 10:54 51°9.874 2°34.961 7.7 88 11.8 100200 86
2004-05-03 10:55 51°9.857 2°35.003 6.9 68 11.8 100200 86
2004-05-03 10:56 51°9.847 2°35.029 7.7 46 11.7 100200 86
2004-05-03 10:57 51°9.845 2°35.04 7.8 17 11.6 100190 87
2004-05-03 10:58 51°9.852 2°35.033 7.4 28 11.7 100190 88
2004-05-03 10:59 51°9.846 2°35.019 8 34 11.7 100180 87
2004-05-03 11:00 51°9.837 2°34.997 8.1 24 11.7 100180 88
2004-05-03 11:01 51°9.834 2°34.966 8.3 25 11.7 100180 88
2004-05-03 11:02 51°9.83 2°34.93 7.8 31 11.8 100190 88
2004-05-03 11:03 51°9.822 2°34.897 7.3 38 11.8 100180 87
2004-05-03 11:04 51°9.807 2°34.865 7.7 32 11.7 100180 87
2004-05-03 11:05 51°9.795 2°34.829 8.2 24 11.7 100190 88
2004-05-03 11:06 51°9.787 2°34.785 9.1 18 11.8 100180 87
2004-05-03 11:07 51°9.784 2°34.739 8.3 11 11.9 100180 86
2004-05-03 11:08 51°9.782 2°34.692 8.6 19 12 100180 86
2004-05-03 11:09 51°9.77 2°34.652 8.8 28 12.1 100180 85
2004-05-03 11:10 51°9.745 2°34.627 8.5 45 12 100180 85
2004-05-03 11:11 51°9.716 2°34.605 9 35 12 100180 85
2004-05-03 11:12 51°9.696 2°34.575 9.2 25 12 100180 85
2004-05-03 11:13 51°9.676 2°34.535 8.7 26 12.1 100180 85
2004-05-03 11:14 51°9.644 2°34.404 12.2 13 12.2 100180 84
2004-05-03 11:15 51°9.62 2°34.173 13.5 4 12.2 100170 83
2004-05-03 11:16 51°9.639 2°33.986 9.2 328 12.3 100170 83
2004-05-03 11:17 51°9.696 2°33.962 7.6 278 12.4 100170 83
2004-05-03 11:18 51°9.756 2°33.991 8.1 270 12.4 100180 82
2004-05-03 11:19 51°9.814 2°34.037 4.4 246 12.3 100180 82
2004-05-03 11:20 51°9.858 2°34.112 4.5 220 12.3 100180 82
2004-05-03 11:21 51°9.889 2°34.198 5.3 211 12.3 100180 82
2004-05-03 11:22 51°9.916 2°34.281 3.9 198 12.3 100180 81
2004-05-03 11:23 51°9.943 2°34.364 4.3 221 12.3 100180 81
2004-05-03 11:24 51°9.969 2°34.443 3.8 213 12.4 100180 81
2004-05-03 11:25 51°9.995 2°34.521 4 200 12.4 100180 81
2004-05-03 11:26 51°10.022 2°34.6 3.2 209 12.4 100180 80
2004-05-03 11:27 51°10.05 2°34.679 3.5 193 12.5 100180 80
2004-05-03 11:28 51°10.076 2°34.757 3.8 201 12.5 100180 80
2004-05-03 11:29 51°10.101 2°34.84 3.4 191 12.7 100170 79
2004-05-03 11:30 51°10.123 2°34.923 4.6 179 13.1 100170 78
2004-05-03 11:31 51°10.141 2°35.008 5.8 168 13.1 100180 77
2004-05-03 11:32 51°10.157 2°35.094 5.5 168 13 100170 76
2004-05-03 11:33 51°10.173 2°35.179 6.2 179 13 100180 76
2004-05-03 11:34 51°10.191 2°35.265 5 174 13 100170 76
2004-05-03 11:35 51°10.208 2°35.351 5.1 174 13 100170 76
2004-05-03 11:36 51°10.224 2°35.434 6.3 173 13 100170 76
2004-05-03 11:37 51°10.24 2°35.52 5.2 171 13 100170 75
2004-05-03 11:38 51°10.254 2°35.606 5.4 164 13 100170 75
2004-05-03 11:39 51°10.27 2°35.693 5.8 168 13 100160 75
2004-05-03 11:40 51°10.285 2°35.774 5.4 167 13 100160 75
2004-05-03 11:41 51°10.301 2°35.853 5.3 165 13.1 100160 73
2004-05-03 11:42 51°10.316 2°35.93 6 164 13.1 100160 73
2004-05-03 11:43 51°10.341 2°36.016 5.5 226 13.2 100150 73
2004-05-03 11:44 51°10.404 2°36.068 7.9 288 13.2 100150 73
2004-05-03 11:45 51°10.452 2°36.028 8.2 350 13.3 100140 73
2004-05-03 11:46 51°10.427 2°35.982 8.8 38 13.4 100130 72
2004-05-03 11:47 51°10.363 2°35.948 9.4 35 13.3 100130 71
2004-05-03 11:48 51°10.286 2°35.922 9.4 45 13.2 100120 71
2004-05-03 11:49 51°10.231 2°35.872 8.1 357 13.2 100120 71
2004-05-03 11:50 51°10.277 2°35.812 6.7 288 13.4 100120 71
2004-05-03 11:51 51°10.359 2°35.875 3.3 247 13.4 100130 71
2004-05-03 11:52 51°10.457 2°35.982 3.2 258 13.4 100130 71
2004-05-03 11:53 51°10.581 2°36.179 1.7 297 13.5 100130 72
2004-05-03 11:54 51°10.699 2°36.452 1.4 312 13.6 100140 72
2004-05-03 11:55 51°10.829 2°36.739 1.9 325 13.7 100140 71
2004-05-03 11:56 51°10.963 2°37.039 2.3 307 13.8 100140 70
2004-05-03 11:57 51°11.1 2°37.341 1.8 313 14 100140 69
2004-05-03 11:58 51°11.218 2°37.672 2 44 14.1 100140 69
2004-05-03 11:59 51°11.335 2°38.001 1.4 281 14.1 100130 68
2004-05-03 12:00 51°11.436 2°38.282 1.3 268 14.2 100130 68
2004-05-03 12:01 51°11.533 2°38.554 1.5 266 14.2 100130 68
2004-05-03 12:02 51°11.633 2°38.835 1.1 256 14.2 100130 68
2004-05-03 12:03 51°11.732 2°39.107 1.2 256 14.2 100130 68
2004-05-03 12:04 51°11.829 2°39.372 2 260 14.1 100130 68
2004-05-03 12:05 51°11.928 2°39.642 1.6 267 14.1 100120 67
2004-05-03 12:06 51°12.037 2°39.939 1 255 14.1 100120 68
2004-05-03 12:07 51°12.136 2°40.206 1.2 251 14.1 100120 68
2004-05-03 12:08 51°12.234 2°40.474 1.9 260 14 100120 68
2004-05-03 12:10 51°12.444 2°41.05 1.8 262 14 100120 68
2004-05-03 12:11 51°12.543 2°41.322 1.5 251 14 100120 68
2004-05-03 12:12 51°12.639 2°41.591 1.1 253 14 100120 68
2004-05-03 12:13 51°12.727 2°41.854 1.8 286 14 100120 67
2004-05-03 12:14 51°12.823 2°42.133 1.4 237 14 100120 68
2004-05-03 12:15 51°12.912 2°42.406 1.2 231 14 100120 68
2004-05-03 12:16 51°12.999 2°42.682 0.9 248 14 100120 69
2004-05-03 12:17 51°13.088 2°42.96 1.8 262 14 100130 69
2004-05-03 12:18 51°13.175 2°43.239 1.3 254 14 100130 69
2004-05-03 12:19 51°13.254 2°43.523 1.7 274 13.9 100120 69
2004-05-03 12:20 51°13.331 2°43.805 1.9 243 13.9 100120 70
2004-05-03 12:21 51°13.407 2°44.089 1.3 250 13.9 100120 70
2004-05-03 12:22 51°13.482 2°44.373 1.5 250 13.9 100120 70
2004-05-03 12:23 51°13.555 2°44.658 2.4 250 13.8 100120 71
2004-05-03 12:24 51°13.625 2°44.942 2.1 242 13.8 100120 70
2004-05-03 12:25 51°13.697 2°45.236 2.4 245 13.8 100120 71
2004-05-03 12:26 51°13.761 2°45.524 1.1 226 13.7 100120 71
2004-05-03 12:27 51°13.78 2°45.831 1.3 157 13.7 100120 73
2004-05-03 12:28 51°13.793 2°46.141 1.9 161 13.9 100120 72
2004-05-03 12:29 51°13.806 2°46.457 1.9 187 13.9 100120 71
2004-05-03 12:30 51°13.823 2°46.782 2.3 204 13.9 100130 72
2004-05-03 12:31 51°13.84 2°47.094 1.1 188 13.9 100120 71
2004-05-03 12:32 51°13.857 2°47.404 1.5 172 14 100120 71
2004-05-03 12:33 51°13.871 2°47.711 1.5 188 14.1 100120 70
2004-05-03 12:34 51°13.888 2°48.018 1 207 14.2 100120 70
2004-05-03 12:35 51°13.909 2°48.255 5.2 215 14.3 100110 69
2004-05-03 12:36 51°13.948 2°48.376 6 222 13.9 100110 71
2004-05-03 12:37 51°13.974 2°48.465 6.2 213 13.7 100110 72
2004-05-03 12:38 51°13.999 2°48.553 4.7 218 13.5 100110 73
2004-05-03 12:39 51°14.024 2°48.637 6.3 224 13.3 100110 74
2004-05-03 12:40 51°14.051 2°48.713 6.8 225 13.3 100110 75
2004-05-03 12:41 51°14.079 2°48.783 7.8 231 13.2 100100 75
2004-05-03 12:42 51°14.108 2°48.853 7.2 226 13.2 100100 75
2004-05-03 12:43 51°14.137 2°48.921 6.3 235 13.2 100100 76
2004-05-03 12:44 51°14.167 2°48.987 6.2 235 13.2 100100 76
2004-05-03 12:45 51°14.196 2°49.05 5.8 246 13.1 100100 75
2004-05-03 12:46 51°14.228 2°49.113 6.4 248 13.1 100100 75
2004-05-03 12:47 51°14.261 2°49.175 6.5 245 13.1 100100 75
2004-05-03 12:48 51°14.294 2°49.233 6.5 245 13.1 100100 76
2004-05-03 12:49 51°14.329 2°49.29 6.6 245 13 100100 75
2004-05-03 12:50 51°14.363 2°49.349 7.1 248 13 100100 75
2004-05-03 12:51 51°14.394 2°49.409 6.9 237 13 100100 75
2004-05-03 12:52 51°14.424 2°49.473 6.1 239 13 100090 75
2004-05-03 12:53 51°14.455 2°49.542 7.7 233 13 100090 76
2004-05-03 12:54 51°14.485 2°49.609 7.9 241 13.1 100090 76
2004-05-03 12:55 51°14.515 2°49.674 6.3 227 13 100090 76
2004-05-03 12:56 51°14.539 2°49.744 6.9 221 13 100100 76
2004-05-03 12:57 51°14.562 2°49.815 7.4 222 13 100100 75
2004-05-03 12:58 51°14.591 2°49.89 7.1 233 13 100100 76
2004-05-03 12:59 51°14.62 2°49.954 6.5 238 13 100090 76
2004-05-03 13:00 51°14.649 2°50.01 7.9 241 13 100090 76
2004-05-03 13:01 51°14.677 2°50.058 7 260 12.9 100090 77
2004-05-03 13:02 51°14.703 2°50.099 7.5 256 12.9 100090 77
2004-05-03 13:03 51°14.731 2°50.136 8.2 270 12.9 100100 77
2004-05-03 13:04 51°14.827 2°50.25 3.8 251 12.9 100090 78
2004-05-03 13:05 51°14.951 2°50.504 3.3 258 12.9 100100 77
2004-05-03 13:06 51°15.043 2°50.848 1 142 12.9 100100 77
2004-05-03 13:07 51°15.024 2°51.233 2.8 124 13 100110 78
2004-05-03 13:08 51°14.998 2°51.615 2.7 136 13.1 100100 77
2004-05-03 13:09 51°14.981 2°52.001 1.7 111 13.1 100100 76
2004-05-03 13:10 51°14.966 2°52.38 1.5 115 13.2 100100 76
2004-05-03 13:11 51°14.895 2°52.742 4.9 107 13.2 100100 76
2004-05-03 13:12 51°14.806 2°53.094 4 118 13.2 100100 76
2004-05-03 13:13 51°14.721 2°53.448 3 107 13.2 100100 76
2004-05-03 13:14 51°14.647 2°53.809 3.9 114 13.2 100100 76
2004-05-03 13:15 51°14.573 2°54.178 3.3 115 13.2 100100 76
2004-05-03 13:16 51°14.513 2°54.552 3.7 133 13.2 100090 77
2004-05-03 13:17 51°14.439 2°54.9 4.7 98 13.2 100100 76
2004-05-03 13:18 51°14.324 2°55.157 6.5 103 13.2 100090 77
2004-05-03 13:19 51°14.216 2°55.348 6.1 110 13.3 100090 78